sensor_id;sensor_type;location;lat;lon;timestamp;pressure;altitude;pressure_sealevel;temperature;humidity
19600;BME280;9947;57.722;12.012;2022-11-20T00:00:38;101170.16;;;-1.06;100.00
19600;BME280;9947;57.722;12.012;2022-11-20T00:03:06;101171.97;;;-1.08;100.00
19600;BME280;9947;57.722;12.012;2022-11-20T00:05:33;101177.34;;;-1.11;100.00
19600;BME280;9947;57.722;12.012;2022-11-20T00:08:00;101180.88;;;-1.10;100.00
19600;BME280;9947;57.722;12.012;2022-11-20T00:10:27;101184.56;;;-1.17;100.00
19600;BME280;9947;57.722;12.012;2022-11-20T00:12:53;101188.91;;;-1.13;100.00
19600;BME280;9947;57.722;12.012;2022-11-20T00:15:20;101189.69;;;-1.10;100.00
19600;BME280;9947;57.722;12.012;2022-11-20T00:17:47;101192.31;;;-1.08;100.00
19600;BME280;9947;57.722;12.012;2022-11-20T00:20:15;101177.38;;;-1.12;100.00
19600;BME280;9947;57.722;12.012;2022-11-20T00:22:42;101183.69;;;-1.18;100.00
19600;BME280;9947;57.722;12.012;2022-11-20T00:25:09;101178.25;;;-1.12;100.00
19600;BME280;9947;57.722;12.012;2022-11-20T00:27:36;101189.00;;;-1.18;100.00
19600;BME280;9947;57.722;12.012;2022-11-20T00:30:05;101182.66;;;-1.11;100.00
19600;BME280;9947;57.722;12.012;2022-11-20T00:32:32;101178.53;;;-1.24;100.00
19600;BME280;9947;57.722;12.012;2022-11-20T00:34:59;101180.31;;;-1.25;100.00
19600;BME280;9947;57.722;12.012;2022-11-20T00:37:27;101178.59;;;-1.27;100.00
19600;BME280;9947;57.722;12.012;2022-11-20T00:39:53;101191.91;;;-1.29;100.00
19600;BME280;9947;57.722;12.012;2022-11-20T00:42:20;101178.53;;;-1.24;100.00
19600;BME280;9947;57.722;12.012;2022-11-20T00:44:47;101177.53;;;-1.18;100.00
19600;BME280;9947;57.722;12.012;2022-11-20T00:47:14;101188.16;;;-1.20;100.00
19600;BME280;9947;57.722;12.012;2022-11-20T00:49:40;101175.94;;;-1.27;100.00
19600;BME280;9947;57.722;12.012;2022-11-20T00:52:07;101185.66;;;-1.26;100.00
19600;BME280;9947;57.722;12.012;2022-11-20T00:54:35;101188.38;;;-1.29;100.00
19600;BME280;9947;57.722;12.012;2022-11-20T00:57:02;101184.88;;;-1.33;100.00
19600;BME280;9947;57.722;12.012;2022-11-20T00:59:29;101177.03;;;-1.37;100.00
19600;BME280;9947;57.722;12.012;2022-11-20T01:01:56;101187.50;;;-1.31;100.00
19600;BME280;9947;57.722;12.012;2022-11-20T01:04:22;101182.16;;;-1.28;100.00
19600;BME280;9947;57.722;12.012;2022-11-20T01:06:49;101185.78;;;-1.34;100.00
19600;BME280;9947;57.722;12.012;2022-11-20T01:09:16;101188.41;;;-1.32;100.00
19600;BME280;9947;57.722;12.012;2022-11-20T01:11:45;101198.28;;;-1.39;100.00
19600;BME280;9947;57.722;12.012;2022-11-20T01:14:13;101192.94;;;-1.37;100.00
19600;BME280;9947;57.722;12.012;2022-11-20T01:16:42;101196.56;;;-1.41;100.00
19600;BME280;9947;57.722;12.012;2022-11-20T01:19:11;101199.00;;;-1.32;100.00
19600;BME280;9947;57.722;12.012;2022-11-20T01:21:40;101202.59;;;-1.35;100.00
19600;BME280;9947;57.722;12.012;2022-11-20T01:24:11;101205.31;;;-1.38;100.00
19600;BME280;9947;57.722;12.012;2022-11-20T01:26:40;101208.88;;;-1.39;100.00
19600;BME280;9947;57.722;12.012;2022-11-20T01:31:38;101199.25;;;-1.43;100.00
19600;BME280;9947;57.722;12.012;2022-11-20T01:34:08;101203.59;;;-1.40;100.00
19600;BME280;9947;57.722;12.012;2022-11-20T01:36:37;101202.63;;;-1.36;100.00
19600;BME280;9947;57.722;12.012;2022-11-20T01:39:05;101207.97;;;-1.38;100.00
19600;BME280;9947;57.722;12.012;2022-11-20T01:41:33;101199.09;;;-1.37;100.00
19600;BME280;9947;57.722;12.012;2022-11-20T01:44:22;101194.75;;;-1.39;100.00
19600;BME280;9947;57.722;12.012;2022-11-20T01:46:55;101190.47;;;-1.46;100.00
19600;BME280;9947;57.722;12.012;2022-11-20T01:49:25;101188.72;;;-1.47;100.00
19600;BME280;9947;57.722;12.012;2022-11-20T01:51:56;101184.31;;;-1.47;100.00
19600;BME280;9947;57.722;12.012;2022-11-20T01:54:28;101184.31;;;-1.47;100.00
19600;BME280;9947;57.722;12.012;2022-11-20T01:56:59;101178.91;;;-1.42;100.00
19600;BME280;9947;57.722;12.012;2022-11-20T01:59:29;101172.88;;;-1.50;100.00
19600;BME280;9947;57.722;12.012;2022-11-20T02:01:58;101176.31;;;-1.45;100.00
19600;BME280;9947;57.722;12.012;2022-11-20T02:04:25;101171.84;;;-1.43;100.00
19600;BME280;9947;57.722;12.012;2022-11-20T02:06:56;101163.13;;;-1.48;100.00
19600;BME280;9947;57.722;12.012;2022-11-20T02:09:25;101165.97;;;-1.59;100.00
19600;BME280;9947;57.722;12.012;2022-11-20T02:11:52;101162.31;;;-1.52;100.00
19600;BME280;9947;57.722;12.012;2022-11-20T02:14:20;101157.09;;;-1.55;100.00
19600;BME280;9947;57.722;12.012;2022-11-20T02:16:49;101157.19;;;-1.61;100.00
19600;BME280;9947;57.722;12.012;2022-11-20T02:19:22;101157.03;;;-1.52;100.00
19600;BME280;9947;57.722;12.012;2022-11-20T02:21:58;101150.66;;;-1.45;100.00
19600;BME280;9947;57.722;12.012;2022-11-20T02:24:28;101154.44;;;-1.57;100.00
19600;BME280;9947;57.722;12.012;2022-11-20T02:26:58;101146.31;;;-1.47;100.00
19600;BME280;9947;57.722;12.012;2022-11-20T02:29:29;101146.47;;;-1.57;100.00
19600;BME280;9947;57.722;12.012;2022-11-20T02:31:59;101142.94;;;-1.57;100.00
19600;BME280;9947;57.722;12.012;2022-11-20T02:34:27;101156.09;;;-1.51;100.00
19600;BME280;9947;57.722;12.012;2022-11-20T02:36:54;101138.50;;;-1.53;100.00
19600;BME280;9947;57.722;12.012;2022-11-20T02:39:23;101144.72;;;-1.56;100.00
19600;BME280;9947;57.722;12.012;2022-11-20T02:41:53;101157.16;;;-1.60;100.00
19600;BME280;9947;57.722;12.012;2022-11-20T02:44:21;101140.34;;;-1.59;100.00
19600;BME280;9947;57.722;12.012;2022-11-20T02:46:48;101140.50;;;-1.66;100.00
19600;BME280;9947;57.722;12.012;2022-11-20T02:49:14;101148.50;;;-1.68;100.00
19600;BME280;9947;57.722;12.012;2022-11-20T02:51:42;101144.06;;;-1.67;100.00
19600;BME280;9947;57.722;12.012;2022-11-20T02:54:08;101146.75;;;-1.69;100.00
19600;BME280;9947;57.722;12.012;2022-11-20T02:56:37;101144.13;;;-1.70;100.00
19600;BME280;9947;57.722;12.012;2022-11-20T02:59:05;101135.25;;;-1.69;100.00
19600;BME280;9947;57.722;12.012;2022-11-20T03:01:32;101129.84;;;-1.63;100.00
19600;BME280;9947;57.722;12.012;2022-11-20T03:03:59;101127.13;;;-1.60;100.00
19600;BME280;9947;57.722;12.012;2022-11-20T03:06:26;101128.72;;;-1.51;100.00
19600;BME280;9947;57.722;12.012;2022-11-20T03:08:53;101133.19;;;-1.53;100.00
19600;BME280;9947;57.722;12.012;2022-11-20T03:11:20;101134.13;;;-1.56;100.00
19600;BME280;9947;57.722;12.012;2022-11-20T03:13:47;101132.25;;;-1.51;100.00
19600;BME280;9947;57.722;12.012;2022-11-20T03:16:17;101126.06;;;-1.51;100.00
19600;BME280;9947;57.722;12.012;2022-11-20T03:18:44;101125.16;;;-1.50;100.00
19600;BME280;9947;57.722;12.012;2022-11-20T03:21:13;101121.78;;;-1.59;100.00
19600;BME280;9947;57.722;12.012;2022-11-20T03:23:40;101119.19;;;-1.62;100.00
19600;BME280;9947;57.722;12.012;2022-11-20T03:26:12;101121.00;;;-1.64;100.00
19600;BME280;9947;57.722;12.012;2022-11-20T03:28:39;101124.63;;;-1.68;100.00
19600;BME280;9947;57.722;12.012;2022-11-20T03:31:08;101126.41;;;-1.68;100.00
19600;BME280;9947;57.722;12.012;2022-11-20T03:33:36;101122.06;;;-1.72;100.00
19600;BME280;9947;57.722;12.012;2022-11-20T03:36:05;101124.69;;;-1.71;100.00
19600;BME280;9947;57.722;12.012;2022-11-20T03:38:32;101127.44;;;-1.75;100.00
19600;BME280;9947;57.722;12.012;2022-11-20T03:41:00;101133.53;;;-1.70;100.00
19600;BME280;9947;57.722;12.012;2022-11-20T03:43:27;101129.78;;;-1.62;100.00
19600;BME280;9947;57.722;12.012;2022-11-20T03:45:54;101126.25;;;-1.61;100.00
19600;BME280;9947;57.722;12.012;2022-11-20T03:48:21;101114.72;;;-1.60;100.00
19600;BME280;9947;57.722;12.012;2022-11-20T03:50:49;101111.31;;;-1.65;100.00
19600;BME280;9947;57.722;12.012;2022-11-20T03:53:16;101108.50;;;-1.57;100.00
19600;BME280;9947;57.722;12.012;2022-11-20T03:55:43;101102.44;;;-1.64;100.00
19600;BME280;9947;57.722;12.012;2022-11-20T03:58:10;101106.91;;;-1.66;100.00
19600;BME280;9947;57.722;12.012;2022-11-20T04:00:36;101097.19;;;-1.65;100.00
19600;BME280;9947;57.722;12.012;2022-11-20T04:03:03;101097.19;;;-1.65;100.00
19600;BME280;9947;57.722;12.012;2022-11-20T04:05:30;101093.50;;;-1.58;100.00
19600;BME280;9947;57.722;12.012;2022-11-20T04:08:00;101080.19;;;-1.55;100.00
19600;BME280;9947;57.722;12.012;2022-11-20T04:10:28;101088.31;;;-1.64;100.00
19600;BME280;9947;57.722;12.012;2022-11-20T04:12:55;101083.06;;;-1.66;100.00
19600;BME280;9947;57.722;12.012;2022-11-20T04:15:21;101084.13;;;-1.74;100.00
19600;BME280;9947;57.722;12.012;2022-11-20T04:17:48;101078.13;;;-1.84;100.00
19600;BME280;9947;57.722;12.012;2022-11-20T04:20:15;101082.50;;;-1.80;100.00
19600;BME280;9947;57.722;12.012;2022-11-20T04:22:42;101079.84;;;-1.80;100.00
19600;BME280;9947;57.722;12.012;2022-11-20T04:25:10;101077.22;;;-1.83;100.00
19600;BME280;9947;57.722;12.012;2022-11-20T04:27:37;101078.19;;;-1.87;100.00
19600;BME280;9947;57.722;12.012;2022-11-20T04:30:04;101075.47;;;-1.84;100.00
19600;BME280;9947;57.722;12.012;2022-11-20T04:32:31;101071.28;;;-1.94;100.00
19600;BME280;9947;57.722;12.012;2022-11-20T04:34:58;101077.41;;;-1.92;100.00
19600;BME280;9947;57.722;12.012;2022-11-20T04:37:24;101076.66;;;-1.97;100.00
19600;BME280;9947;57.722;12.012;2022-11-20T04:39:51;101071.22;;;-1.91;100.00
19600;BME280;9947;57.722;12.012;2022-11-20T04:42:19;101063.03;;;-1.79;100.00
19600;BME280;9947;57.722;12.012;2022-11-20T04:44:56;101055.16;;;-1.82;100.00
19600;BME280;9947;57.722;12.012;2022-11-20T04:47:23;101055.25;;;-1.88;100.00
19600;BME280;9947;57.722;12.012;2022-11-20T04:49:50;101051.75;;;-1.90;100.00
19600;BME280;9947;57.722;12.012;2022-11-20T04:52:17;101051.00;;;-1.95;100.00
19600;BME280;9947;57.722;12.012;2022-11-20T04:54:44;101058.03;;;-1.94;100.00
19600;BME280;9947;57.722;12.012;2022-11-20T04:57:13;101063.19;;;-1.88;100.00
19600;BME280;9947;57.722;12.012;2022-11-20T04:59:41;101048.09;;;-1.84;100.00
19600;BME280;9947;57.722;12.012;2022-11-20T05:02:08;101044.66;;;-1.88;100.00
19600;BME280;9947;57.722;12.012;2022-11-20T05:04:35;101053.38;;;-1.83;100.00
19600;BME280;9947;57.722;12.012;2022-11-20T05:07:01;101040.94;;;-1.78;100.00
19600;BME280;9947;57.722;12.012;2022-11-20T05:09:29;101041.63;;;-1.70;100.00
19600;BME280;9947;57.722;12.012;2022-11-20T05:11:56;101042.53;;;-1.71;100.00
19600;BME280;9947;57.722;12.012;2022-11-20T05:14:23;101049.69;;;-1.74;100.00
19600;BME280;9947;57.722;12.012;2022-11-20T05:16:51;101032.72;;;-1.67;100.00
19600;BME280;9947;57.722;12.012;2022-11-20T05:19:18;101037.13;;;-1.66;100.00
19600;BME280;9947;57.722;12.012;2022-11-20T05:21:44;101033.56;;;-1.65;100.00
19600;BME280;9947;57.722;12.012;2022-11-20T05:24:11;101023.84;;;-1.65;100.00
19600;BME280;9947;57.722;12.012;2022-11-20T05:26:38;101023.03;;;-1.68;100.00
19600;BME280;9947;57.722;12.012;2022-11-20T05:29:05;101017.63;;;-1.64;100.00
19600;BME280;9947;57.722;12.012;2022-11-20T05:31:32;101007.78;;;-1.59;100.00
19600;BME280;9947;57.722;12.012;2022-11-20T05:34:00;101007.78;;;-1.59;100.00
19600;BME280;9947;57.722;12.012;2022-11-20T05:36:26;101020.25;;;-1.62;100.00
19600;BME280;9947;57.722;12.012;2022-11-20T05:38:53;101006.63;;;-1.45;100.00
19600;BME280;9947;57.722;12.012;2022-11-20T05:41:20;100997.97;;;-1.53;100.00
19600;BME280;9947;57.722;12.012;2022-11-20T05:43:48;100994.50;;;-1.57;100.00
19600;BME280;9947;57.722;12.012;2022-11-20T05:46:19;100998.81;;;-1.51;100.00
19600;BME280;9947;57.722;12.012;2022-11-20T05:48:47;100999.75;;;-1.54;100.00
19600;BME280;9947;57.722;12.012;2022-11-20T05:51:16;100996.00;;;-1.45;100.00
19600;BME280;9947;57.722;12.012;2022-11-20T05:53:44;101004.19;;;-1.54;100.00
19600;BME280;9947;57.722;12.012;2022-11-20T05:56:12;101000.44;;;-1.46;100.00
19600;BME280;9947;57.722;12.012;2022-11-20T05:58:40;101003.88;;;-1.42;100.00
19600;BME280;9947;57.722;12.012;2022-11-20T06:01:08;101002.03;;;-1.39;100.00
19600;BME280;9947;57.722;12.012;2022-11-20T06:03:35;101003.94;;;-1.44;100.00
19600;BME280;9947;57.722;12.012;2022-11-20T06:06:03;100999.53;;;-1.45;100.00
19600;BME280;9947;57.722;12.012;2022-11-20T06:08:32;100999.53;;;-1.45;100.00
19600;BME280;9947;57.722;12.012;2022-11-20T06:11:03;100989.72;;;-1.41;100.00
19600;BME280;9947;57.722;12.012;2022-11-20T06:13:30;100992.22;;;-1.35;100.00
19600;BME280;9947;57.722;12.012;2022-11-20T06:15:56;100987.97;;;-1.42;100.00
19600;BME280;9947;57.722;12.012;2022-11-20T06:18:25;100991.53;;;-1.43;100.00
19600;BME280;9947;57.722;12.012;2022-11-20T06:20:59;100984.16;;;-1.31;100.00
19600;BME280;9947;57.722;12.012;2022-11-20T06:23:28;100979.88;;;-1.36;100.00
19600;BME280;9947;57.722;12.012;2022-11-20T06:25:56;100978.88;;;-1.32;100.00
19600;BME280;9947;57.722;12.012;2022-11-20T06:28:23;100978.22;;;-1.40;100.00
19600;BME280;9947;57.722;12.012;2022-11-20T06:30:49;100978.84;;;-1.31;100.00
19600;BME280;9947;57.722;12.012;2022-11-20T06:33:16;100970.03;;;-1.31;100.00
19600;BME280;9947;57.722;12.012;2022-11-20T06:35:43;100973.63;;;-1.34;100.00
19600;BME280;9947;57.722;12.012;2022-11-20T06:38:10;100963.91;;;-1.35;100.00
19600;BME280;9947;57.722;12.012;2022-11-20T06:40:39;100961.91;;;-1.23;100.00
19600;BME280;9947;57.722;12.012;2022-11-20T06:43:07;100973.38;;;-1.23;100.00
19600;BME280;9947;57.722;12.012;2022-11-20T06:45:34;100960.13;;;-1.23;100.00
19600;BME280;9947;57.722;12.012;2022-11-20T06:48:01;100960.16;;;-1.25;100.00
19600;BME280;9947;57.722;12.012;2022-11-20T06:50:29;100963.75;;;-1.27;100.00
19600;BME280;9947;57.722;12.012;2022-11-20T06:52:56;100952.06;;;-1.20;100.00
19600;BME280;9947;57.722;12.012;2022-11-20T06:55:23;100953.94;;;-1.23;100.00
19600;BME280;9947;57.722;12.012;2022-11-20T06:57:50;100965.25;;;-1.17;100.00
19600;BME280;9947;57.722;12.012;2022-11-20T07:00:19;100960.88;;;-1.18;100.00
19600;BME280;9947;57.722;12.012;2022-11-20T07:02:46;100958.94;;;-1.11;100.00
19600;BME280;9947;57.722;12.012;2022-11-20T07:05:13;100962.72;;;-1.21;100.00
19600;BME280;9947;57.722;12.012;2022-11-20T07:07:39;100959.84;;;-1.12;100.00
19600;BME280;9947;57.722;12.012;2022-11-20T07:10:07;100949.97;;;-1.07;100.00
19600;BME280;9947;57.722;12.012;2022-11-20T07:12:34;100965.03;;;-1.08;100.00
19600;BME280;9947;57.722;12.012;2022-11-20T07:15:04;100957.22;;;-1.14;100.00
19600;BME280;9947;57.722;12.012;2022-11-20T07:17:35;100950.81;;;-1.05;100.00
19600;BME280;9947;57.722;12.012;2022-11-20T07:20:01;100952.63;;;-1.07;100.00
19600;BME280;9947;57.722;12.012;2022-11-20T07:22:28;100941.94;;;-1.04;100.00
19600;BME280;9947;57.722;12.012;2022-11-20T07:24:55;100945.38;;;-0.99;100.00
19600;BME280;9947;57.722;12.012;2022-11-20T07:27:22;100938.28;;;-0.99;100.00
19600;BME280;9947;57.722;12.012;2022-11-20T07:29:48;100949.78;;;-1.00;100.00
19600;BME280;9947;57.722;12.012;2022-11-20T07:32:15;100940.94;;;-0.99;100.00
19600;BME280;9947;57.722;12.012;2022-11-20T07:34:43;100934.78;;;-1.01;100.00
19600;BME280;9947;57.722;12.012;2022-11-20T07:37:10;100947.88;;;-0.95;100.00
19600;BME280;9947;57.722;12.012;2022-11-20T07:39:37;100949.75;;;-0.98;100.00
19600;BME280;9947;57.722;12.012;2022-11-20T07:42:03;100944.19;;;-0.89;100.00
19600;BME280;9947;57.722;12.012;2022-11-20T07:44:30;100939.63;;;-0.84;100.00
19600;BME280;9947;57.722;12.012;2022-11-20T07:46:57;100931.88;;;-0.91;100.00
19600;BME280;9947;57.722;12.012;2022-11-20T07:49:24;100928.28;;;-0.89;100.00
19600;BME280;9947;57.722;12.012;2022-11-20T07:51:52;100927.28;;;-0.85;100.00
19600;BME280;9947;57.722;12.012;2022-11-20T07:54:20;100926.22;;;-0.79;100.00
19600;BME280;9947;57.722;12.012;2022-11-20T07:56:46;100929.75;;;-0.79;100.00
19600;BME280;9947;57.722;12.012;2022-11-20T07:59:15;100912.19;;;-0.83;100.00
19600;BME280;9947;57.722;12.012;2022-11-20T08:01:42;100927.09;;;-0.77;100.00
19600;BME280;9947;57.722;12.012;2022-11-20T08:04:09;100922.56;;;-0.74;100.00
19600;BME280;9947;57.722;12.012;2022-11-20T08:06:36;100911.94;;;-0.74;100.00
19600;BME280;9947;57.722;12.012;2022-11-20T08:09:04;100912.84;;;-0.75;100.00
19600;BME280;9947;57.722;12.012;2022-11-20T08:11:31;100918.03;;;-0.70;100.00
19600;BME280;9947;57.722;12.012;2022-11-20T08:14:16;100915.38;;;-0.70;100.00
19600;BME280;9947;57.722;12.012;2022-11-20T08:16:45;100912.59;;;-0.66;100.00
19600;BME280;9947;57.722;12.012;2022-11-20T08:19:13;100909.25;;;-0.72;100.00
19600;BME280;9947;57.722;12.012;2022-11-20T08:21:40;100911.81;;;-0.69;100.00
19600;BME280;9947;57.722;12.012;2022-11-20T08:24:08;100906.25;;;-0.60;100.00
19600;BME280;9947;57.722;12.012;2022-11-20T08:26:36;100900.84;;;-0.57;100.00
19600;BME280;9947;57.722;12.012;2022-11-20T08:29:04;100908.84;;;-0.58;100.00
19600;BME280;9947;57.722;12.012;2022-11-20T08:31:31;100904.44;;;-0.59;100.00
19600;BME280;9947;57.722;12.012;2022-11-20T08:33:58;100894.47;;;-0.50;100.00
19600;BME280;9947;57.722;12.012;2022-11-20T08:36:25;100891.75;;;-0.48;100.00
19600;BME280;9947;57.722;12.012;2022-11-20T08:38:54;100891.66;;;-0.45;100.00
19600;BME280;9947;57.722;12.012;2022-11-20T08:41:22;100894.38;;;-0.47;100.00
19600;BME280;9947;57.722;12.012;2022-11-20T08:43:55;100893.50;;;-0.47;100.00
19600;BME280;9947;57.722;12.012;2022-11-20T08:46:23;100900.41;;;-0.42;100.00
19600;BME280;9947;57.722;12.012;2022-11-20T08:48:50;100885.28;;;-0.40;100.00
19600;BME280;9947;57.722;12.012;2022-11-20T08:51:18;100887.84;;;-0.37;100.00
19600;BME280;9947;57.722;12.012;2022-11-20T08:53:45;100892.34;;;-0.39;100.00
19600;BME280;9947;57.722;12.012;2022-11-20T08:56:13;100889.97;;;-0.18;100.00
19600;BME280;9947;57.722;12.012;2022-11-20T08:58:41;100892.63;;;-0.18;100.00
19600;BME280;9947;57.722;12.012;2022-11-20T09:01:08;100890.03;;;-0.20;100.00
19600;BME280;9947;57.722;12.012;2022-11-20T09:03:35;100885.78;;;-0.25;100.00
19600;BME280;9947;57.722;12.012;2022-11-20T09:06:04;100885.53;;;-0.18;100.00
19600;BME280;9947;57.722;12.012;2022-11-20T09:08:32;100882.69;;;-0.12;100.00
19600;BME280;9947;57.722;12.012;2022-11-20T09:10:59;100886.41;;;-0.17;100.00
19600;BME280;9947;57.722;12.012;2022-11-20T09:13:27;100884.81;;;-0.23;100.00
19600;BME280;9947;57.722;12.012;2022-11-20T09:15:56;100884.41;;;-0.11;100.00
19600;BME280;9947;57.722;12.012;2022-11-20T09:18:27;100880.91;;;-0.11;100.00
19600;BME280;9947;57.722;12.012;2022-11-20T09:20:56;100881.47;;;-0.02;100.00
19600;BME280;9947;57.722;12.012;2022-11-20T09:23:23;100887.84;;;-0.07;100.00
19600;BME280;9947;57.722;12.012;2022-11-20T09:25:50;100876.72;;;0.10;100.00
19600;BME280;9947;57.722;12.012;2022-11-20T09:28:18;100880.81;;;0.20;100.00
19600;BME280;9947;57.722;12.012;2022-11-20T09:30:44;100873.09;;;0.12;100.00
19600;BME280;9947;57.722;12.012;2022-11-20T09:33:13;100868.47;;;0.17;100.00
19600;BME280;9947;57.722;12.012;2022-11-20T09:35:41;100863.75;;;0.27;100.00
19600;BME280;9947;57.722;12.012;2022-11-20T09:38:09;100859.22;;;0.30;100.00
19600;BME280;9947;57.722;12.012;2022-11-20T09:40:39;100863.59;;;0.32;100.00
19600;BME280;9947;57.722;12.012;2022-11-20T09:43:12;100855.13;;;0.19;100.00
19600;BME280;9947;57.722;12.012;2022-11-20T09:45:57;100851.28;;;0.29;100.00
19600;BME280;9947;57.722;12.012;2022-11-20T09:48:51;100855.19;;;0.17;100.00
19600;BME280;9947;57.722;12.012;2022-11-20T09:51:30;100839.50;;;0.10;100.00
19600;BME280;9947;57.722;12.012;2022-11-20T09:54:07;100841.38;;;0.06;100.00
19600;BME280;9947;57.722;12.012;2022-11-20T09:56:40;100833.41;;;0.06;100.00
19600;BME280;9947;57.722;12.012;2022-11-20T09:59:18;100831.72;;;0.04;100.00
19600;BME280;9947;57.722;12.012;2022-11-20T10:01:48;100827.06;;;0.10;100.00
19600;BME280;9947;57.722;12.012;2022-11-20T10:04:18;100828.59;;;0.17;100.00
19600;BME280;9947;57.722;12.012;2022-11-20T10:06:52;100825.34;;;0.09;100.00
19600;BME280;9947;57.722;12.012;2022-11-20T10:09:28;100824.63;;;0.04;100.00
19600;BME280;9947;57.722;12.012;2022-11-20T10:12:06;100816.53;;;0.07;100.00
19600;BME280;9947;57.722;12.012;2022-11-20T10:14:45;100824.84;;;-0.04;100.00
19600;BME280;9947;57.722;12.012;2022-11-20T10:17:21;100820.69;;;-0.12;100.00
19600;BME280;9947;57.722;12.012;2022-11-20T10:20:02;100825.19;;;-0.14;100.00
19600;BME280;9947;57.722;12.012;2022-11-20T10:22:53;100812.53;;;-0.06;100.00
19600;BME280;9947;57.722;12.012;2022-11-20T10:25:33;100809.16;;;-0.11;100.00
19600;BME280;9947;57.722;12.012;2022-11-20T10:28:21;100809.78;;;-0.03;100.00
19600;BME280;9947;57.722;12.012;2022-11-20T10:30:54;100807.97;;;-0.03;100.00
19600;BME280;9947;57.722;12.012;2022-11-20T10:33:23;100800.59;;;0.07;100.00
19600;BME280;9947;57.722;12.012;2022-11-20T10:35:59;100795.91;;;0.15;100.00
19600;BME280;9947;57.722;12.012;2022-11-20T10:38:35;100791.72;;;0.08;100.00
19600;BME280;9947;57.722;12.012;2022-11-20T10:41:13;100789.00;;;0.10;100.00
19600;BME280;9947;57.722;12.012;2022-11-20T10:44:00;100795.78;;;0.18;100.00
19600;BME280;9947;57.722;12.012;2022-11-20T10:46:34;100775.38;;;0.19;100.00
19600;BME280;9947;57.722;12.012;2022-11-20T10:49:09;100777.81;;;0.26;100.00
19600;BME280;9947;57.722;12.012;2022-11-20T10:51:48;100761.69;;;0.31;100.00
19600;BME280;9947;57.722;12.012;2022-11-20T10:54:22;100764.31;;;0.33;100.00
19600;BME280;9947;57.722;12.012;2022-11-20T10:56:58;100757.56;;;0.47;100.00
19600;BME280;9947;57.722;12.012;2022-11-20T11:02:23;100748.91;;;0.67;100.00
19600;BME280;9947;57.722;12.012;2022-11-20T11:04:51;100730.22;;;0.69;100.00
19600;BME280;9947;57.722;12.012;2022-11-20T11:07:23;100734.66;;;0.68;100.00
19600;BME280;9947;57.722;12.012;2022-11-20T11:09:53;100741.94;;;0.63;100.00
19600;BME280;9947;57.722;12.012;2022-11-20T11:12:21;100743.16;;;0.78;100.00
19600;BME280;9947;57.722;12.012;2022-11-20T11:14:50;100743.69;;;0.64;100.00
19600;BME280;9947;57.722;12.012;2022-11-20T11:17:25;100753.94;;;0.50;100.00
19600;BME280;9947;57.722;12.012;2022-11-20T11:20:00;100743.41;;;0.47;100.00
19600;BME280;9947;57.722;12.012;2022-11-20T11:22:31;100734.31;;;0.54;100.00
19600;BME280;9947;57.722;12.012;2022-11-20T11:24:59;100725.72;;;0.46;100.00
19600;BME280;9947;57.722;12.012;2022-11-20T11:27:26;100723.63;;;0.55;100.00
19600;BME280;9947;57.722;12.012;2022-11-20T11:30:02;100731.47;;;0.58;100.00
19600;BME280;9947;57.722;12.012;2022-11-20T11:32:30;100723.88;;;0.48;100.00
19600;BME280;9947;57.722;12.012;2022-11-20T11:35:01;100718.44;;;0.51;100.00
19600;BME280;9947;57.722;12.012;2022-11-20T11:37:33;100714.84;;;0.52;100.00
19600;BME280;9947;57.722;12.012;2022-11-20T11:40:02;100709.59;;;0.50;100.00
19600;BME280;9947;57.722;12.012;2022-11-20T11:42:30;100705.31;;;0.46;100.00
19600;BME280;9947;57.722;12.012;2022-11-20T11:44:59;100713.78;;;0.57;100.00
19600;BME280;9947;57.722;12.012;2022-11-20T11:47:32;100702.38;;;0.54;100.00
19600;BME280;9947;57.722;12.012;2022-11-20T11:50:14;100703.94;;;0.59;100.00
19600;BME280;9947;57.722;12.012;2022-11-20T11:52:47;100700.44;;;0.59;100.00
19600;BME280;9947;57.722;12.012;2022-11-20T11:55:22;100687.88;;;0.63;100.00
19600;BME280;9947;57.722;12.012;2022-11-20T11:57:54;100684.28;;;0.64;100.00
19600;BME280;9947;57.722;12.012;2022-11-20T12:00:22;100685.22;;;0.63;100.00
19600;BME280;9947;57.722;12.012;2022-11-20T12:02:57;100685.44;;;0.56;100.00
19600;BME280;9947;57.722;12.012;2022-11-20T12:05:32;100684.47;;;0.59;100.00
19600;BME280;9947;57.722;12.012;2022-11-20T12:08:06;100680.31;;;0.50;100.00
19600;BME280;9947;57.722;12.012;2022-11-20T12:10:45;100678.00;;;0.41;100.00
19600;BME280;9947;57.722;12.012;2022-11-20T12:13:21;100665.63;;;0.40;100.00
19600;BME280;9947;57.722;12.012;2022-11-20T12:15:53;100673.78;;;0.36;100.00
19600;BME280;9947;57.722;12.012;2022-11-20T12:18:21;100665.91;;;0.33;100.00
19600;BME280;9947;57.722;12.012;2022-11-20T12:20:56;100663.22;;;0.34;100.00
19600;BME280;9947;57.722;12.012;2022-11-20T12:23:36;100656.16;;;0.33;100.00
19600;BME280;9947;57.722;12.012;2022-11-20T12:26:11;100659.34;;;0.43;100.00
19600;BME280;9947;57.722;12.012;2022-11-20T12:28:47;100654.19;;;0.38;100.00
19600;BME280;9947;57.722;12.012;2022-11-20T12:31:35;100651.34;;;0.43;100.00
19600;BME280;9947;57.722;12.012;2022-11-20T12:34:25;100633.44;;;0.48;100.00
19600;BME280;9947;57.722;12.012;2022-11-20T12:37:07;100631.19;;;0.37;100.00
19600;BME280;9947;57.722;12.012;2022-11-20T12:39:40;100631.81;;;0.44;100.00
19600;BME280;9947;57.722;12.012;2022-11-20T12:42:23;100627.31;;;0.46;100.00
19600;BME280;9947;57.722;12.012;2022-11-20T12:45:32;100631.19;;;0.37;100.00
19600;BME280;9947;57.722;12.012;2022-11-20T12:48:46;100630.88;;;0.45;100.00
19600;BME280;9947;57.722;12.012;2022-11-20T12:54:24;100626.22;;;0.28;100.00
19600;BME280;9947;57.722;12.012;2022-11-20T12:57:03;100610.50;;;0.20;100.00
19600;BME280;9947;57.722;12.012;2022-11-20T12:59:46;100614.97;;;0.20;100.00
19600;BME280;9947;57.722;12.012;2022-11-20T13:02:24;100604.06;;;0.27;100.00
19600;BME280;9947;57.722;12.012;2022-11-20T13:07:54;100601.41;;;0.27;100.00